Time,TemperatureF,DewpointF,PressureIn,WindDirection,WindDirectionDegrees,WindSpeedMPH,WindSpeedGustMPH,Humidity,HourlyPrecipIn,Conditions,Clouds,dailyrainin,SolarRadiationWatts/m^2,SoftwareType,DateUTC
2013-04-26 00:02:00,21.0,6.0,-100.00,ENE,73,2.0,3.0,52,0.00,,,0.00,1.000000,,2013-04-26 08:02:00,
2013-04-26 00:11:00,21.0,6.0,-100.00,ENE,73,2.0,3.0,52,0.00,,,0.00,1.000000,,2013-04-26 08:11:00,
2013-04-26 00:21:00,21.0,6.0,-100.00,ENE,73,2.0,3.0,52,0.00,,,0.00,1.000000,,2013-04-26 08:21:00,
2013-04-26 00:52:00,17.0,6.0,-100.00,ENE,69,2.0,3.0,61,0.00,,,0.00,0.000000,,2013-04-26 08:52:00,
2013-04-26 01:01:00,17.0,6.0,-100.00,ENE,69,2.0,3.0,61,0.00,,,0.00,0.000000,,2013-04-26 09:01:00,
2013-04-26 01:11:00,17.0,6.0,-100.00,ENE,69,2.0,3.0,61,0.00,,,0.00,0.000000,,2013-04-26 09:11:00,
2013-04-26 01:21:00,17.0,6.0,-100.00,ENE,69,2.0,3.0,61,0.00,,,0.00,0.000000,,2013-04-26 09:21:00,
2013-04-26 01:53:00,17.0,9.0,-100.00,ENE,67,3.0,4.0,70,0.00,,,0.00,0.000000,,2013-04-26 09:53:00,
2013-04-26 02:03:00,17.0,9.0,-100.00,ENE,67,3.0,4.0,70,0.00,,,0.00,0.000000,,2013-04-26 10:03:00,
2013-04-26 02:12:00,17.0,9.0,-100.00,ENE,67,3.0,4.0,70,0.00,,,0.00,0.000000,,2013-04-26 10:12:00,
2013-04-26 02:22:00,17.0,9.0,-100.00,ENE,67,3.0,4.0,70,0.00,,,0.00,0.000000,,2013-04-26 10:22:00,
2013-04-26 02:52:00,14.0,4.0,-100.00,ENE,66,2.0,5.0,65,0.00,,,0.00,0.000000,,2013-04-26 10:52:00,
2013-04-26 03:02:00,14.0,4.0,-100.00,ENE,66,2.0,5.0,65,0.00,,,0.00,0.000000,,2013-04-26 11:02:00,
2013-04-26 03:11:00,14.0,4.0,-100.00,ENE,66,2.0,5.0,65,0.00,,,0.00,0.000000,,2013-04-26 11:11:00,
2013-04-26 03:21:00,14.0,4.0,-100.00,ENE,66,2.0,5.0,65,0.00,,,0.00,0.000000,,2013-04-26 11:21:00,
2013-04-26 03:52:00,10.0,5.0,-100.00,NNW,334,1.0,4.0,81,0.00,,,0.00,0.000000,,2013-04-26 11:52:00,
2013-04-26 04:01:00,10.0,5.0,-100.00,NNW,334,1.0,4.0,81,0.00,,,0.00,0.000000,,2013-04-26 12:01:00,
2013-04-26 04:11:00,10.0,5.0,-100.00,NNW,334,1.0,4.0,81,0.00,,,0.00,0.000000,,2013-04-26 12:11:00,
2013-04-26 04:21:00,10.0,5.0,-100.00,NNW,334,1.0,4.0,81,0.00,,,0.00,0.000000,,2013-04-26 12:21:00,
2013-04-26 04:52:00,10.0,6.0,-100.00,ENE,63,1.0,3.0,82,0.00,,,0.00,0.000000,,2013-04-26 12:52:00,
2013-04-26 05:01:00,10.0,6.0,-100.00,ENE,63,1.0,3.0,82,0.00,,,0.00,0.000000,,2013-04-26 13:01:00,
2013-04-26 05:11:00,10.0,6.0,-100.00,ENE,63,1.0,3.0,82,0.00,,,0.00,0.000000,,2013-04-26 13:11:00,
2013-04-26 05:21:00,10.0,6.0,-100.00,ENE,63,1.0,3.0,82,0.00,,,0.00,0.000000,,2013-04-26 13:21:00,
2013-04-26 05:52:00,10.0,4.0,-100.00,ESE,110,2.0,4.0,77,0.00,,,0.00,1.000000,,2013-04-26 13:52:00,
2013-04-26 06:01:00,10.0,4.0,-100.00,ESE,110,2.0,4.0,77,0.00,,,0.00,1.000000,,2013-04-26 14:01:00,
2013-04-26 06:11:00,10.0,4.0,-100.00,ESE,110,2.0,4.0,77,0.00,,,0.00,1.000000,,2013-04-26 14:11:00,
2013-04-26 06:21:00,10.0,4.0,-100.00,ESE,110,2.0,4.0,77,0.00,,,0.00,1.000000,,2013-04-26 14:21:00,
2013-04-26 06:52:00,10.0,3.0,-100.00,East,94,2.0,5.0,71,0.00,,,0.00,11.000000,,2013-04-26 14:52:00,
2013-04-26 07:01:00,10.0,3.0,-100.00,East,94,2.0,5.0,71,0.00,,,0.00,11.000000,,2013-04-26 15:01:00,
2013-04-26 07:11:00,10.0,3.0,-100.00,East,94,2.0,5.0,71,0.00,,,0.00,11.000000,,2013-04-26 15:11:00,
2013-04-26 07:21:00,10.0,3.0,-100.00,East,94,2.0,5.0,71,0.00,,,0.00,11.000000,,2013-04-26 15:21:00,
2013-04-26 07:53:00,13.0,4.0,-100.00,East,91,4.0,6.0,66,0.00,,,0.00,53.000000,,2013-04-26 15:53:00,
2013-04-26 08:03:00,13.0,4.0,-100.00,East,91,4.0,6.0,66,0.00,,,0.00,53.000000,,2013-04-26 16:03:00,
2013-04-26 08:12:00,13.0,4.0,-100.00,East,91,4.0,6.0,66,0.00,,,0.00,53.000000,,2013-04-26 16:12:00,
2013-04-26 08:23:00,13.0,4.0,-100.00,East,91,4.0,6.0,66,0.00,,,0.00,53.000000,,2013-04-26 16:23:00,
2013-04-26 08:52:00,16.0,4.0,-100.00,ESE,105,5.0,7.0,58,0.00,,,0.00,112.000000,,2013-04-26 16:52:00,
2013-04-26 09:02:00,16.0,4.0,-100.00,ESE,105,5.0,7.0,58,0.00,,,0.00,112.000000,,2013-04-26 17:02:00,
2013-04-26 09:12:00,16.0,4.0,-100.00,ESE,105,5.0,7.0,58,0.00,,,0.00,112.000000,,2013-04-26 17:12:00,
2013-04-26 09:21:00,16.0,4.0,-100.00,ESE,105,5.0,7.0,58,0.00,,,0.00,112.000000,,2013-04-26 17:21:00,
2013-04-26 09:52:00,19.0,4.0,-100.00,SSE,160,5.0,8.0,52,0.00,,,0.00,186.000000,,2013-04-26 17:52:00,
2013-04-26 10:02:00,19.0,4.0,-100.00,SSE,160,5.0,8.0,52,0.00,,,0.00,186.000000,,2013-04-26 18:02:00,
2013-04-26 10:11:00,19.0,4.0,-100.00,SSE,160,5.0,8.0,52,0.00,,,0.00,186.000000,,2013-04-26 18:11:00,
2013-04-26 10:22:00,19.0,4.0,-100.00,SSE,160,5.0,8.0,52,0.00,,,0.00,186.000000,,2013-04-26 18:22:00,
2013-04-26 10:52:00,22.0,6.0,-100.00,SSW,202,4.0,7.0,49,0.00,,,0.00,329.000000,,2013-04-26 18:52:00,
2013-04-26 11:01:00,22.0,6.0,-100.00,SSW,202,4.0,7.0,49,0.00,,,0.00,329.000000,,2013-04-26 19:01:00,
2013-04-26 11:11:00,22.0,6.0,-100.00,SSW,202,4.0,7.0,49,0.00,,,0.00,329.000000,,2013-04-26 19:11:00,
2013-04-26 11:22:00,22.0,6.0,-100.00,SSW,202,4.0,7.0,49,0.00,,,0.00,329.000000,,2013-04-26 19:22:00,
2013-04-26 11:52:00,29.0,7.0,-100.00,WSW,239,2.0,5.0,38,0.00,,,0.00,430.000000,,2013-04-26 19:52:00,
2013-04-26 12:02:00,29.0,7.0,-100.00,WSW,239,2.0,5.0,38,0.00,,,0.00,430.000000,,2013-04-26 20:02:00,
2013-04-26 12:11:00,29.0,7.0,-100.00,WSW,239,2.0,5.0,38,0.00,,,0.00,430.000000,,2013-04-26 20:11:00,
2013-04-26 12:21:00,29.0,7.0,-100.00,WSW,239,2.0,5.0,38,0.00,,,0.00,430.000000,,2013-04-26 20:21:00,
2013-04-26 12:52:00,30.0,8.0,-100.00,WSW,250,3.0,7.0,39,0.00,,,0.00,485.000000,,2013-04-26 20:52:00,
2013-04-26 13:01:00,30.0,8.0,-100.00,WSW,250,3.0,7.0,39,0.00,,,0.00,485.000000,,2013-04-26 21:01:00,
2013-04-26 13:11:00,30.0,8.0,-100.00,WSW,250,3.0,7.0,39,0.00,,,0.00,485.000000,,2013-04-26 21:11:00,
2013-04-26 13:21:00,30.0,8.0,-100.00,WSW,250,3.0,7.0,39,0.00,,,0.00,485.000000,,2013-04-26 21:21:00,
2013-04-26 13:53:00,31.0,8.0,-100.00,WSW,246,3.0,9.0,38,0.00,,,0.00,594.000000,,2013-04-26 21:53:00,
2013-04-26 14:02:00,31.0,8.0,-100.00,WSW,246,3.0,9.0,38,0.00,,,0.00,594.000000,,2013-04-26 22:02:00,
2013-04-26 14:12:00,31.0,8.0,-100.00,WSW,246,3.0,9.0,38,0.00,,,0.00,594.000000,,2013-04-26 22:12:00,
2013-04-26 14:22:00,31.0,8.0,-100.00,WSW,246,3.0,9.0,38,0.00,,,0.00,594.000000,,2013-04-26 22:22:00,
2013-04-26 14:52:00,30.0,9.0,-100.00,West,260,5.0,8.0,40,0.00,,,0.00,416.000000,,2013-04-26 22:52:00,
2013-04-26 15:01:00,30.0,9.0,-100.00,West,260,5.0,8.0,40,0.00,,,0.00,416.000000,,2013-04-26 23:01:00,
2013-04-26 15:11:00,30.0,9.0,-100.00,West,260,5.0,8.0,40,0.00,,,0.00,416.000000,,2013-04-26 23:11:00,
2013-04-26 15:21:00,30.0,9.0,-100.00,West,260,5.0,8.0,40,0.00,,,0.00,416.000000,,2013-04-26 23:21:00,
2013-04-26 15:52:00,33.0,10.0,-100.00,WSW,242,5.0,8.0,38,0.00,,,0.00,476.000000,,2013-04-26 23:52:00,
2013-04-26 16:01:00,33.0,10.0,-100.00,WSW,242,5.0,8.0,38,0.00,,,0.00,476.000000,,2013-04-27 00:01:00,
2013-04-26 16:11:00,33.0,10.0,-100.00,WSW,242,5.0,8.0,38,0.00,,,0.00,476.000000,,2013-04-27 00:11:00,
2013-04-26 16:21:00,33.0,10.0,-100.00,WSW,242,5.0,8.0,38,0.00,,,0.00,476.000000,,2013-04-27 00:21:00,
2013-04-26 16:52:00,31.0,14.0,-100.00,West,271,6.0,10.0,49,0.00,,,0.00,513.000000,,2013-04-27 00:52:00,
2013-04-26 17:01:00,31.0,14.0,-100.00,West,271,6.0,10.0,49,0.00,,,0.00,513.000000,,2013-04-27 01:01:00,
2013-04-26 17:11:00,31.0,14.0,-100.00,West,271,6.0,10.0,49,0.00,,,0.00,513.000000,,2013-04-27 01:11:00,
2013-04-26 17:21:00,31.0,14.0,-100.00,West,271,6.0,10.0,49,0.00,,,0.00,513.000000,,2013-04-27 01:21:00,
2013-04-26 17:52:00,33.0,14.0,-100.00,SW,220,5.0,8.0,46,0.00,,,0.00,354.000000,,2013-04-27 01:52:00,
2013-04-26 18:01:00,33.0,14.0,-100.00,SW,220,5.0,8.0,46,0.00,,,0.00,354.000000,,2013-04-27 02:01:00,
2013-04-26 18:11:00,33.0,14.0,-100.00,SW,220,5.0,8.0,46,0.00,,,0.00,354.000000,,2013-04-27 02:11:00,
2013-04-26 18:22:00,33.0,14.0,-100.00,SW,220,5.0,8.0,46,0.00,,,0.00,354.000000,,2013-04-27 02:22:00,
2013-04-26 18:52:00,31.0,18.0,-100.00,West,275,6.0,10.0,57,0.00,,,0.00,223.000000,,2013-04-27 02:52:00,
2013-04-26 19:02:00,31.0,18.0,-100.00,West,275,6.0,10.0,57,0.00,,,0.00,223.000000,,2013-04-27 03:02:00,
2013-04-26 19:11:00,31.0,18.0,-100.00,West,275,6.0,10.0,57,0.00,,,0.00,223.000000,,2013-04-27 03:11:00,
2013-04-26 19:22:00,31.0,18.0,-100.00,West,275,6.0,10.0,57,0.00,,,0.00,223.000000,,2013-04-27 03:22:00,
2013-04-26 19:53:00,31.0,20.0,-100.00,WNW,295,4.0,8.0,62,0.00,,,0.00,184.000000,,2013-04-27 03:53:00,
2013-04-26 20:02:00,31.0,20.0,-100.00,WNW,295,4.0,8.0,62,0.00,,,0.00,184.000000,,2013-04-27 04:02:00,
2013-04-26 20:12:00,31.0,20.0,-100.00,WNW,295,4.0,8.0,62,0.00,,,0.00,184.000000,,2013-04-27 04:12:00,
2013-04-26 20:22:00,31.0,20.0,-100.00,WNW,295,4.0,8.0,62,0.00,,,0.00,184.000000,,2013-04-27 04:22:00,
2013-04-26 20:53:00,29.0,18.0,-100.00,West,267,7.0,10.0,63,0.00,,,0.00,102.000000,,2013-04-27 04:53:00,
2013-04-26 21:02:00,29.0,18.0,-100.00,West,267,7.0,10.0,63,0.00,,,0.00,102.000000,,2013-04-27 05:02:00,
2013-04-26 21:12:00,29.0,18.0,-100.00,West,267,7.0,10.0,63,0.00,,,0.00,102.000000,,2013-04-27 05:12:00,
2013-04-26 21:22:00,29.0,18.0,-100.00,West,267,7.0,10.0,63,0.00,,,0.00,102.000000,,2013-04-27 05:22:00,
2013-04-26 21:52:00,28.0,22.0,-100.00,WNW,294,3.0,10.0,77,0.00,,,0.00,31.000000,,2013-04-27 05:52:00,
2013-04-26 22:01:00,28.0,22.0,-100.00,WNW,294,3.0,10.0,77,0.00,,,0.00,31.000000,,2013-04-27 06:01:00,
2013-04-26 22:12:00,28.0,22.0,-100.00,WNW,294,3.0,10.0,77,0.00,,,0.00,31.000000,,2013-04-27 06:12:00,
2013-04-26 22:22:00,28.0,22.0,-100.00,WNW,294,3.0,10.0,77,0.00,,,0.00,31.000000,,2013-04-27 06:22:00,
2013-04-26 22:52:00,26.0,23.0,-100.00,WSW,257,4.0,5.0,88,0.00,,,0.00,7.000000,,2013-04-27 06:52:00,
2013-04-26 23:01:00,26.0,23.0,-100.00,WSW,257,4.0,5.0,88,0.00,,,0.00,7.000000,,2013-04-27 07:01:00,
2013-04-26 23:11:00,26.0,23.0,-100.00,WSW,257,4.0,5.0,88,0.00,,,0.00,7.000000,,2013-04-27 07:11:00,
2013-04-26 23:21:00,26.0,23.0,-100.00,WSW,257,4.0,5.0,88,0.00,,,0.00,7.000000,,2013-04-27 07:21:00,
2013-04-26 23:52:00,25.0,23.0,-100.00,West,280,2.0,4.0,92,0.00,,,0.00,1.000000,,2013-04-27 07:52:00,